createdAt,value
2023-05-13T00:01:44.464Z,12.30
2023-05-13T00:04:11.673Z,12.30
2023-05-13T00:06:38.838Z,12.20
2023-05-13T00:09:05.964Z,12.10
2023-05-13T00:11:32.891Z,12.00
2023-05-13T00:13:59.772Z,12.00
2023-05-13T00:16:28.829Z,12.00
2023-05-13T00:18:56.460Z,12.00
2023-05-13T00:21:23.855Z,11.90
2023-05-13T00:23:50.936Z,11.90
2023-05-13T00:26:17.904Z,11.90
2023-05-13T00:28:47.564Z,11.90
2023-05-13T00:31:14.545Z,11.90
2023-05-13T00:33:41.440Z,11.70
2023-05-13T00:36:10.155Z,11.70
2023-05-13T00:38:37.883Z,11.70
2023-05-13T00:41:05.823Z,11.70
2023-05-13T00:43:32.889Z,11.70
2023-05-13T00:46:00.486Z,11.60
2023-05-13T00:48:27.490Z,11.60
2023-05-13T00:50:54.430Z,11.60
2023-05-13T00:53:21.483Z,11.60
2023-05-13T00:55:48.467Z,11.50
2023-05-13T00:58:17.340Z,11.50
2023-05-13T01:01:17.779Z,11.40
2023-05-13T01:03:53.283Z,11.30
2023-05-13T01:06:49.367Z,11.20
2023-05-13T01:09:41.246Z,11.10
2023-05-13T01:12:13.110Z,11.10
2023-05-13T01:14:54.354Z,11.10
2023-05-13T01:17:53.175Z,11.10
2023-05-13T01:20:24.007Z,11.10
2023-05-13T01:22:51.441Z,11.10
2023-05-13T01:25:19.017Z,11.10
2023-05-13T01:27:46.537Z,11.10
2023-05-13T01:30:16.176Z,11.00
2023-05-13T01:32:44.273Z,11.00
2023-05-13T01:35:11.711Z,11.00
2023-05-13T01:37:43.502Z,11.00
2023-05-13T01:40:28.146Z,11.10
2023-05-13T01:42:59.827Z,11.00
2023-05-13T01:45:30.643Z,10.90
2023-05-13T01:47:58.407Z,10.90
2023-05-13T01:50:27.263Z,10.90
2023-05-13T01:52:54.446Z,10.90
2023-05-13T01:55:22.028Z,10.90
2023-05-13T01:57:49.375Z,10.90
2023-05-13T02:00:16.768Z,10.90
2023-05-13T02:02:44.600Z,10.90
2023-05-13T02:05:11.963Z,10.90
2023-05-13T02:07:39.046Z,10.80
2023-05-13T02:10:06.387Z,10.70
2023-05-13T02:12:33.596Z,10.60
2023-05-13T02:15:01.173Z,10.50
2023-05-13T02:17:30.545Z,10.40
2023-05-13T02:19:57.524Z,10.20
2023-05-13T02:22:24.662Z,10.10
2023-05-13T02:24:51.595Z,10.00
2023-05-13T02:27:20.957Z,10.00
2023-05-13T02:29:50.298Z,9.80
2023-05-13T02:32:17.615Z,9.60
2023-05-13T02:34:44.608Z,9.40
2023-05-13T02:37:11.476Z,9.30
2023-05-13T02:39:46.713Z,9.20
2023-05-13T02:42:13.926Z,9.20
2023-05-13T02:44:40.907Z,9.30
2023-05-13T02:47:09.318Z,9.20
2023-05-13T02:49:36.246Z,9.20
2023-05-13T02:52:03.640Z,9.10
2023-05-13T02:54:34.439Z,9.10
2023-05-13T02:57:01.384Z,9.00
2023-05-13T02:59:28.293Z,9.00
2023-05-13T03:01:55.289Z,9.00
2023-05-13T03:04:22.234Z,9.00
2023-05-13T03:06:50.913Z,8.90
2023-05-13T03:09:17.728Z,9.00
2023-05-13T03:11:44.772Z,8.90
2023-05-13T03:14:11.621Z,8.90
2023-05-13T03:16:38.666Z,8.80
2023-05-13T03:19:05.684Z,8.70
2023-05-13T03:21:32.765Z,8.70
2023-05-13T03:23:59.834Z,8.60
2023-05-13T03:26:26.884Z,8.60
2023-05-13T03:28:54.354Z,8.70
2023-05-13T03:31:22.058Z,8.70
2023-05-13T03:33:48.977Z,8.70
2023-05-13T03:52:31.834Z,8.60
2023-05-13T03:55:01.119Z,8.60
2023-05-13T03:57:28.072Z,8.60
2023-05-13T03:59:55.376Z,8.60
2023-05-13T04:02:24.184Z,8.50
2023-05-13T04:04:51.280Z,8.40
2023-05-13T04:07:19.543Z,8.30
2023-05-13T04:09:47.467Z,8.20
2023-05-13T04:12:18.144Z,8.30
2023-05-13T04:14:45.532Z,8.40
2023-05-13T04:17:12.499Z,8.60
2023-05-13T04:19:39.543Z,8.70
2023-05-13T04:22:06.596Z,8.80
2023-05-13T04:24:33.538Z,8.80
2023-05-13T04:27:01.471Z,8.80
2023-05-13T04:29:29.615Z,8.80
2023-05-13T04:31:56.905Z,8.70
2023-05-13T04:34:24.600Z,8.60
2023-05-13T04:36:52.213Z,8.40
2023-05-13T04:39:19.032Z,8.30
2023-05-13T04:41:45.959Z,8.10
2023-05-13T04:44:12.954Z,8.10
2023-05-13T04:46:40.632Z,8.10
2023-05-13T04:49:07.664Z,8.10
2023-05-13T04:51:35.138Z,8.10
2023-05-13T04:54:02.292Z,8.30
2023-05-13T04:56:29.350Z,8.30
2023-05-13T04:58:56.528Z,8.40
2023-05-13T05:01:23.583Z,8.40
2023-05-13T05:03:51.118Z,8.40
2023-05-13T05:06:18.201Z,8.40
2023-05-13T05:08:45.493Z,8.50
2023-05-13T05:11:12.959Z,8.50
2023-05-13T05:13:41.115Z,8.40
2023-05-13T05:16:08.923Z,8.50
2023-05-13T05:18:36.402Z,8.50
2023-05-13T05:21:04.951Z,8.50
2023-05-13T05:23:32.098Z,8.40
2023-05-13T05:26:10.578Z,8.30
2023-05-13T05:28:40.319Z,8.30
2023-05-13T05:31:07.986Z,8.20
2023-05-13T05:33:35.977Z,8.20
2023-05-13T05:36:02.865Z,8.20
2023-05-13T05:38:29.850Z,8.20
2023-05-13T05:40:59.097Z,8.20
2023-05-13T05:43:26.709Z,8.20
2023-05-13T05:45:53.647Z,8.20
2023-05-13T05:48:21.474Z,8.20
2023-05-13T05:50:49.166Z,8.20
2023-05-13T05:53:23.171Z,8.20
2023-05-13T05:55:51.671Z,8.10
2023-05-13T05:58:20.375Z,8.00
2023-05-13T06:00:47.446Z,8.00
2023-05-13T06:03:15.051Z,8.00
2023-05-13T06:05:42.631Z,8.00
2023-05-13T06:08:09.489Z,7.90
2023-05-13T06:10:36.421Z,7.90
2023-05-13T06:13:03.600Z,7.90
2023-05-13T06:15:30.825Z,7.90
2023-05-13T06:17:58.224Z,7.90
2023-05-13T06:20:25.557Z,8.00
2023-05-13T06:22:52.401Z,8.00
2023-05-13T06:25:19.445Z,8.00
2023-05-13T06:27:46.339Z,8.10
2023-05-13T06:30:13.405Z,8.10
2023-05-13T06:32:53.514Z,8.10
2023-05-13T06:35:28.725Z,8.20
2023-05-13T06:37:55.911Z,8.20
2023-05-13T06:40:23.133Z,8.20
2023-05-13T06:42:50.252Z,8.20
2023-05-13T06:45:28.511Z,8.20
2023-05-13T06:47:55.560Z,8.30
2023-05-13T06:50:22.576Z,8.40
2023-05-13T06:52:49.649Z,8.40
2023-05-13T06:55:19.914Z,8.40
2023-05-13T06:57:47.366Z,8.40
2023-05-13T07:00:15.865Z,8.40
2023-05-13T07:02:43.217Z,8.50
2023-05-13T07:05:11.766Z,8.60
2023-05-13T07:07:38.740Z,8.60
2023-05-13T07:10:06.048Z,8.70
2023-05-13T07:12:33.537Z,8.80
2023-05-13T07:15:00.579Z,8.90
2023-05-13T07:17:31.383Z,8.90
2023-05-13T07:19:59.210Z,8.90
2023-05-13T07:22:26.115Z,8.90
2023-05-13T07:24:52.914Z,8.80
2023-05-13T07:27:19.825Z,8.70
2023-05-13T07:29:47.056Z,8.70
2023-05-13T07:32:13.958Z,8.70
2023-05-13T07:34:41.319Z,8.70
2023-05-13T07:37:09.450Z,8.80
2023-05-13T07:39:36.365Z,8.80
2023-05-13T07:42:03.946Z,8.90
2023-05-13T07:44:30.950Z,9.00
2023-05-13T07:46:57.876Z,9.10
2023-05-13T07:49:24.805Z,9.20
2023-05-13T07:51:53.114Z,9.30
2023-05-13T07:54:20.211Z,9.40
2023-05-13T07:56:48.052Z,9.40
2023-05-13T07:59:15.035Z,9.40
2023-05-13T08:01:43.274Z,9.50
2023-05-13T08:04:10.741Z,9.50
2023-05-13T08:06:37.973Z,9.60
2023-05-13T08:09:05.072Z,9.60
2023-05-13T08:11:31.920Z,9.70
2023-05-13T08:13:58.910Z,9.70
2023-05-13T08:16:25.827Z,9.70
2023-05-13T08:18:52.816Z,9.70
2023-05-13T08:21:20.039Z,9.80
2023-05-13T08:23:47.084Z,9.90
2023-05-13T08:26:14.248Z,10.00
2023-05-13T08:28:42.455Z,9.90
2023-05-13T08:31:12.082Z,10.00
2023-05-13T08:33:40.149Z,10.00
2023-05-13T08:36:07.715Z,10.00
2023-05-13T08:38:35.009Z,10.10
2023-05-13T08:41:04.814Z,10.00
2023-05-13T08:43:33.367Z,10.00
2023-05-13T08:46:06.741Z,10.00
2023-05-13T08:48:34.719Z,10.10
2023-05-13T08:51:02.525Z,10.10
2023-05-13T08:53:31.397Z,10.10
2023-05-13T08:55:59.191Z,10.10
2023-05-13T08:58:26.046Z,10.20
2023-05-13T09:00:54.129Z,10.20
2023-05-13T09:10:05.989Z,10.40
2023-05-13T09:12:47.955Z,10.60
2023-05-13T09:15:19.217Z,10.80
2023-05-13T09:17:51.652Z,11.00
2023-05-13T09:20:20.243Z,11.10
2023-05-13T09:22:52.731Z,11.20
2023-05-13T09:25:24.416Z,11.30
2023-05-13T09:27:58.952Z,11.30
2023-05-13T09:30:34.665Z,11.40
2023-05-13T09:33:04.754Z,11.50
2023-05-13T09:35:32.499Z,11.60
2023-05-13T09:37:59.563Z,11.70
2023-05-13T09:40:26.788Z,11.80
2023-05-13T09:43:00.856Z,12.00
2023-05-13T09:45:27.706Z,12.00
2023-05-13T09:47:56.149Z,12.10
2023-05-13T09:50:23.265Z,12.20
2023-05-13T09:52:50.992Z,12.10
2023-05-13T09:55:18.263Z,12.20
2023-05-13T09:57:46.354Z,12.30
2023-05-13T10:00:24.660Z,12.30
2023-05-13T10:02:56.768Z,12.50
2023-05-13T10:05:24.677Z,12.60
2023-05-13T10:07:52.152Z,12.70
2023-05-13T10:10:20.093Z,12.80
2023-05-13T10:12:47.615Z,13.00
2023-05-13T10:15:14.728Z,13.10
2023-05-13T10:17:42.380Z,13.20
2023-05-13T10:20:09.543Z,13.40
2023-05-13T10:22:36.889Z,13.50
2023-05-13T10:25:05.197Z,13.60
2023-05-13T10:27:33.642Z,13.80
2023-05-13T10:30:03.759Z,14.00
2023-05-13T10:32:31.647Z,14.00
2023-05-13T10:35:15.601Z,14.00
2023-05-13T10:38:07.709Z,14.00
2023-05-13T10:40:59.133Z,14.00
2023-05-13T10:43:31.088Z,13.90
2023-05-13T10:46:04.469Z,13.90
2023-05-13T10:48:59.114Z,14.10
2023-05-13T10:51:26.760Z,14.10
2023-05-13T10:53:56.042Z,14.20
2023-05-13T10:56:24.852Z,14.20
2023-05-13T10:59:04.474Z,14.30
2023-05-13T11:01:35.767Z,14.40
2023-05-13T11:04:05.150Z,14.70
2023-05-13T11:06:37.468Z,14.90
2023-05-13T11:09:08.056Z,15.10
2023-05-13T11:11:36.619Z,15.40
2023-05-13T11:14:23.568Z,15.60
2023-05-13T11:16:54.559Z,15.80
2023-05-13T11:19:47.482Z,15.90
2023-05-13T11:22:23.928Z,16.10
2023-05-13T11:25:12.893Z,16.30
2023-05-13T11:27:41.447Z,16.50
2023-05-13T11:30:29.623Z,16.70
2023-05-13T11:32:58.123Z,16.80
2023-05-13T11:35:31.553Z,17.00
2023-05-13T11:38:00.776Z,17.10
2023-05-13T11:40:33.648Z,17.30
2023-05-13T11:43:01.157Z,17.50
2023-05-13T11:45:29.447Z,17.70
2023-05-13T11:47:57.357Z,17.90
2023-05-13T11:50:32.520Z,18.00
2023-05-13T11:53:01.173Z,18.00
2023-05-13T11:55:33.681Z,18.10
2023-05-13T11:58:00.921Z,18.20
2023-05-13T12:00:29.470Z,18.20
2023-05-13T12:02:57.168Z,18.10
2023-05-13T12:05:24.532Z,17.90
2023-05-13T12:07:56.094Z,17.80
2023-05-13T12:10:23.326Z,17.90
2023-05-13T12:12:50.665Z,18.10
2023-05-13T12:15:19.740Z,18.20
2023-05-13T12:17:47.696Z,18.40
2023-05-13T12:20:20.034Z,18.30
2023-05-13T12:22:46.873Z,18.00
2023-05-13T12:25:51.342Z,17.90
2023-05-13T12:28:22.743Z,17.80
2023-05-13T12:30:58.685Z,17.90
2023-05-13T12:33:28.195Z,17.70
2023-05-13T12:36:25.431Z,17.80
2023-05-13T12:39:00.655Z,17.80
2023-05-13T12:41:32.197Z,17.80
2023-05-13T12:44:00.893Z,17.90
2023-05-13T12:46:28.631Z,17.90
2023-05-13T12:48:57.286Z,18.00
2023-05-13T12:51:24.751Z,18.10
2023-05-13T12:53:54.131Z,18.20
2023-05-13T12:56:23.001Z,18.10
2023-05-13T12:58:51.729Z,18.10
2023-05-13T13:01:18.827Z,18.00
2023-05-13T13:03:46.428Z,18.00
2023-05-13T13:06:14.032Z,18.20
2023-05-13T13:08:40.906Z,18.40
2023-05-13T13:11:07.891Z,18.70
2023-05-13T13:13:36.728Z,19.10
2023-05-13T13:16:06.223Z,19.30
2023-05-13T13:18:33.239Z,19.50
2023-05-13T13:21:00.139Z,19.70
2023-05-13T13:23:27.077Z,19.90
2023-05-13T13:25:54.238Z,20.10
2023-05-13T13:28:21.071Z,20.20
2023-05-13T13:30:47.881Z,20.20
2023-05-13T13:33:16.336Z,20.30
2023-05-13T13:35:44.660Z,20.40
2023-05-13T13:38:11.713Z,20.50
2023-05-13T13:40:39.000Z,20.70
2023-05-13T13:43:06.830Z,20.70
2023-05-13T13:45:34.684Z,20.80
2023-05-13T13:48:01.746Z,20.80
2023-05-13T13:50:29.016Z,20.80
2023-05-13T13:52:56.063Z,20.70
2023-05-13T13:55:24.232Z,20.50
2023-05-13T13:57:51.947Z,20.40
2023-05-13T14:00:19.428Z,20.40
2023-05-13T14:02:46.692Z,20.30
2023-05-13T14:05:14.058Z,20.40
2023-05-13T14:07:41.165Z,20.50
2023-05-13T14:10:08.958Z,20.70
2023-05-13T14:12:36.418Z,20.60
2023-05-13T14:15:03.788Z,20.70
2023-05-13T14:17:30.851Z,20.80
2023-05-13T14:19:57.784Z,20.70
2023-05-13T14:22:25.035Z,20.60
2023-05-13T14:24:52.905Z,20.50
2023-05-13T14:27:20.853Z,20.50
2023-05-13T14:29:48.134Z,20.50
2023-05-13T14:32:15.494Z,20.50
2023-05-13T14:34:43.004Z,20.50
2023-05-13T14:37:09.976Z,20.60
2023-05-13T14:39:37.147Z,20.70
2023-05-13T14:42:04.478Z,20.60
2023-05-13T14:44:31.986Z,20.70
2023-05-13T14:46:59.007Z,20.70
2023-05-13T14:49:25.960Z,20.60
2023-05-13T14:51:52.822Z,20.70
2023-05-13T14:54:19.914Z,20.70
2023-05-13T14:56:47.160Z,20.60
2023-05-13T14:59:14.162Z,20.70
2023-05-13T15:01:41.138Z,20.90
2023-05-13T15:04:08.025Z,21.10
2023-05-13T15:06:36.729Z,21.20
2023-05-13T15:09:03.787Z,21.10
2023-05-13T15:11:30.801Z,21.00
2023-05-13T15:13:57.750Z,20.90
2023-05-13T15:16:24.691Z,21.00
2023-05-13T15:18:51.728Z,21.00
2023-05-13T15:21:18.664Z,21.30
2023-05-13T15:23:45.548Z,21.40
2023-05-13T15:26:12.459Z,21.50
2023-05-13T15:28:39.290Z,21.30
2023-05-13T15:31:06.629Z,21.00
2023-05-13T15:33:33.784Z,20.60
2023-05-13T15:36:01.342Z,20.30
2023-05-13T15:38:28.357Z,20.10
2023-05-13T15:40:55.353Z,20.20
2023-05-13T15:43:22.280Z,20.40
2023-05-13T15:45:50.345Z,20.60
2023-05-13T15:48:17.891Z,20.80
2023-05-13T15:50:44.988Z,21.00
2023-05-13T15:53:11.835Z,21.00
2023-05-13T15:55:39.509Z,21.10
2023-05-13T15:58:07.422Z,21.20
2023-05-13T16:00:35.180Z,21.20
2023-05-13T16:03:02.357Z,21.10
2023-05-13T16:05:29.295Z,21.00
2023-05-13T16:07:57.374Z,20.70
2023-05-13T16:10:24.364Z,20.60
2023-05-13T16:12:51.691Z,20.60
2023-05-13T16:15:18.509Z,20.70
2023-05-13T16:17:45.434Z,20.80
2023-05-13T16:20:13.481Z,21.00
2023-05-13T16:22:40.653Z,21.10
2023-05-13T16:25:08.845Z,21.10
2023-05-13T16:27:36.839Z,21.20
2023-05-13T16:30:05.624Z,21.20
2023-05-13T16:32:33.148Z,21.10
2023-05-13T16:35:01.451Z,21.00
2023-05-13T16:37:28.626Z,20.90
2023-05-13T16:39:55.562Z,20.90
2023-05-13T16:42:22.843Z,20.90
2023-05-13T16:44:49.806Z,20.90
2023-05-13T16:47:16.758Z,21.00
2023-05-13T16:49:43.760Z,21.00
2023-05-13T16:52:10.602Z,21.00
2023-05-13T16:54:37.540Z,21.10
2023-05-13T16:57:04.622Z,21.10
2023-05-13T16:59:31.479Z,21.10
2023-05-13T17:01:59.800Z,21.20
2023-05-13T17:04:28.330Z,21.20
2023-05-13T17:06:58.301Z,21.30
2023-05-13T17:09:26.630Z,21.30
2023-05-13T17:11:54.508Z,21.10
2023-05-13T17:14:22.089Z,21.10
2023-05-13T17:16:49.163Z,21.00
2023-05-13T17:19:16.270Z,20.90
2023-05-13T17:21:43.380Z,20.90
2023-05-13T17:24:10.374Z,20.90
2023-05-13T17:26:38.985Z,20.80
2023-05-13T17:29:06.359Z,20.80
2023-05-13T17:31:33.917Z,20.80
2023-05-13T17:34:00.925Z,20.80
2023-05-13T17:36:28.004Z,20.80
2023-05-13T17:38:54.956Z,20.80
2023-05-13T17:41:21.790Z,20.70
2023-05-13T17:43:48.753Z,20.60
2023-05-13T17:46:15.681Z,20.60
2023-05-13T17:48:42.943Z,20.50
2023-05-13T17:51:11.398Z,20.50
2023-05-13T17:53:38.240Z,20.50
2023-05-13T17:56:05.776Z,20.50
2023-05-13T17:58:33.777Z,20.50
2023-05-13T18:01:00.493Z,20.40
2023-05-13T18:03:27.421Z,20.40
2023-05-13T18:05:55.025Z,20.20
2023-05-13T18:08:21.928Z,20.20
2023-05-13T18:10:48.963Z,20.10
2023-05-13T18:13:16.143Z,20.00
2023-05-13T18:15:43.077Z,20.00
2023-05-13T18:18:10.106Z,19.90
2023-05-13T18:20:40.105Z,19.80
2023-05-13T18:23:07.037Z,19.80
2023-05-13T18:25:39.958Z,19.70
2023-05-13T18:28:12.489Z,19.60
2023-05-13T18:30:39.374Z,19.50
2023-05-13T18:33:06.300Z,19.50
2023-05-13T18:35:33.338Z,19.40
2023-05-13T18:38:00.471Z,19.40
2023-05-13T18:40:27.356Z,19.40
2023-05-13T18:42:54.239Z,19.40
2023-05-13T18:45:27.858Z,19.30
2023-05-13T18:48:14.842Z,19.20
2023-05-13T18:50:54.636Z,19.20
2023-05-13T18:53:41.575Z,19.20
2023-05-13T18:56:21.784Z,19.10
2023-05-13T18:59:08.500Z,19.00
2023-05-13T19:01:48.846Z,19.00
2023-05-13T19:04:35.543Z,18.90
2023-05-13T19:07:15.584Z,18.80
2023-05-13T19:10:09.554Z,18.70
2023-05-13T19:12:56.606Z,18.60
2023-05-13T19:15:36.563Z,18.50
2023-05-13T19:18:23.819Z,18.40
2023-05-13T19:21:03.567Z,18.30
2023-05-13T19:23:50.638Z,18.20
2023-05-13T19:26:30.473Z,18.10
2023-05-13T19:29:05.107Z,18.10
2023-05-13T19:31:32.379Z,17.90
2023-05-13T19:34:01.261Z,17.70
2023-05-13T19:36:28.287Z,17.60
2023-05-13T19:38:55.314Z,17.50
2023-05-13T19:41:22.527Z,17.40
2023-05-13T19:43:49.603Z,17.30
2023-05-13T19:46:16.474Z,17.20
2023-05-13T19:48:43.482Z,17.10
2023-05-13T19:51:10.398Z,17.00
2023-05-13T19:53:37.441Z,16.90
2023-05-13T19:56:04.483Z,16.80
2023-05-13T19:58:31.359Z,16.60
2023-05-13T20:00:58.280Z,16.60
2023-05-13T20:03:25.299Z,16.40
2023-05-13T20:05:53.945Z,16.20
2023-05-13T20:08:21.321Z,16.10
2023-05-13T20:10:48.278Z,15.90
2023-05-13T20:13:15.227Z,15.70
2023-05-13T20:15:42.364Z,15.70
2023-05-13T20:18:09.269Z,15.40
2023-05-13T20:20:36.280Z,15.20
2023-05-13T20:23:03.084Z,15.10
2023-05-13T20:25:29.864Z,15.00
2023-05-13T20:27:57.060Z,14.80
2023-05-13T20:30:24.788Z,14.70
2023-05-13T20:32:51.941Z,14.60
2023-05-13T20:35:19.044Z,14.50
2023-05-13T20:37:45.881Z,14.40
2023-05-13T20:40:12.900Z,14.30
2023-05-13T20:42:39.952Z,14.20
2023-05-13T20:45:08.751Z,14.00
2023-05-13T20:47:36.445Z,14.00
2023-05-13T20:50:03.914Z,13.90
2023-05-13T20:52:30.764Z,13.80
2023-05-13T20:54:57.778Z,13.70
2023-05-13T20:57:25.626Z,13.60
2023-05-13T20:59:52.810Z,13.50
2023-05-13T21:02:19.775Z,13.40
2023-05-13T21:04:46.885Z,13.30
2023-05-13T21:07:16.507Z,13.30
2023-05-13T21:09:46.470Z,13.10
2023-05-13T21:12:16.141Z,13.00
2023-05-13T21:14:45.001Z,12.90
2023-05-13T21:17:11.793Z,12.80
2023-05-13T21:19:38.675Z,12.70
2023-05-13T21:22:06.129Z,12.70
2023-05-13T21:24:33.295Z,12.60
2023-05-13T21:27:00.185Z,12.40
2023-05-13T21:29:27.108Z,12.20
2023-05-13T21:31:54.598Z,12.10
2023-05-13T21:34:21.555Z,11.90
2023-05-13T21:36:48.500Z,11.70
2023-05-13T21:39:15.419Z,11.70
2023-05-13T21:41:42.389Z,11.50
2023-05-13T21:44:09.285Z,11.40
2023-05-13T21:46:36.102Z,11.30
2023-05-13T21:49:03.687Z,11.20
2023-05-13T21:51:32.628Z,11.10
2023-05-13T21:53:59.549Z,11.10
2023-05-13T21:56:26.439Z,11.00
2023-05-13T21:58:53.300Z,10.90
2023-05-13T22:01:20.357Z,10.80
2023-05-13T22:03:47.257Z,10.90
2023-05-13T22:06:14.452Z,10.90
2023-05-13T22:08:41.301Z,11.00
2023-05-13T22:11:08.285Z,10.90
2023-05-13T22:13:35.121Z,10.80
2023-05-13T22:16:01.971Z,10.80
2023-05-13T22:18:28.978Z,10.80
2023-05-13T22:20:56.073Z,10.80
2023-05-13T22:23:22.891Z,10.80
2023-05-13T22:25:49.814Z,10.70
2023-05-13T22:28:16.716Z,10.70
2023-05-13T22:30:44.843Z,10.50
2023-05-13T22:33:11.677Z,10.40
2023-05-13T22:35:39.555Z,10.30
2023-05-13T22:38:06.492Z,10.20
2023-05-13T22:40:33.362Z,10.20
2023-05-13T22:43:00.817Z,10.20
2023-05-13T22:45:27.605Z,10.20
2023-05-13T22:47:55.954Z,10.20
2023-05-13T22:50:23.242Z,10.20
2023-05-13T22:52:50.188Z,10.10
2023-05-13T22:55:17.184Z,10.00
2023-05-13T22:57:43.999Z,9.80
2023-05-13T23:00:11.662Z,9.70
2023-05-13T23:02:38.720Z,9.60
2023-05-13T23:05:06.169Z,9.40
2023-05-13T23:07:33.086Z,9.40
2023-05-13T23:10:00.160Z,9.20
2023-05-13T23:12:27.100Z,9.20
2023-05-13T23:14:53.956Z,9.00
2023-05-13T23:17:20.847Z,8.90
2023-05-13T23:19:47.723Z,9.00
2023-05-13T23:22:14.516Z,9.00
2023-05-13T23:24:41.367Z,9.00
2023-05-13T23:27:09.134Z,8.90
2023-05-13T23:29:36.207Z,8.80
2023-05-13T23:32:05.176Z,8.70
2023-05-13T23:34:33.507Z,8.60
2023-05-13T23:37:00.362Z,8.50
2023-05-13T23:39:27.207Z,8.40
2023-05-13T23:41:54.213Z,8.40
2023-05-13T23:44:21.053Z,8.30
2023-05-13T23:46:47.993Z,8.30
2023-05-13T23:49:15.142Z,8.30
2023-05-13T23:51:41.961Z,8.20
2023-05-13T23:54:09.056Z,8.10
2023-05-13T23:56:35.955Z,8.10
2023-05-13T23:59:02.801Z,8.20
